Main page
METAR-TAF:

METAR-TAF

Airports :

Parma Airport

Parma, Italy

latitude: 44-49-17N, longitude: 010-17-41E, elevation: 50 m

Current weather observation

The report was made 1 hour and 4 minutes ago, at 14:50 UTC
Wind 2 kt from variable directions
Temperature 18°C
Humidity 68%
Pressure 1013 hPa
Visibility 10 km or more
no clouds below 1500 m and no cumulonimbus

METAR: LIMP 281450Z VRB02KT CAVOK 18/12 Q1013

Time: 16:54 (15:54 UTC)

Forecast

The report was made 4 hours and 54 minutes ago, at 11:00 UTC
Forecast valid from 28 at 12 UTC to 29 at 12 UTC
Wind 5 kt from variable directions
Visibility: 7000 m

TAF: LIMP 281100Z 2812/2912 VRB05KT 7000 NSC

Weather observations and forecasts of more than 4000 airports (METAR and TAF reports).

The available stations are represented by yellow and red dots on the map.

Hover mouse over dot to see the name of the station.

Then click to see weather observations and forecasts.

To change the map : click on the green buttons with a black cross to zoom in, on the green button with a dash to zoom out, or on the green arrows for adjacent maps.


METAR-TAF: